sensor_id;sensor_type;location;lat;lon;timestamp;P1;durP1;ratioP1;P2;durP2;ratioP2
75035;SDS011;64247;51.540;5.854;2022-12-31T00:00:10;1.55;;;1.45;;
75035;SDS011;64247;51.540;5.854;2022-12-31T00:02:12;1.85;;;1.75;;
75035;SDS011;64247;51.540;5.854;2022-12-31T00:04:13;2.35;;;1.30;;
75035;SDS011;64247;51.540;5.854;2022-12-31T00:06:22;1.17;;;1.00;;
75035;SDS011;64247;51.540;5.854;2022-12-31T00:08:33;1.35;;;1.25;;
75035;SDS011;64247;51.540;5.854;2022-12-31T00:10:34;4.18;;;1.17;;
75035;SDS011;64247;51.540;5.854;2022-12-31T00:12:40;0.75;;;0.75;;
75035;SDS011;64247;51.540;5.854;2022-12-31T00:14:41;1.38;;;1.20;;
75035;SDS011;64247;51.540;5.854;2022-12-31T00:16:42;1.23;;;0.88;;
75035;SDS011;64247;51.540;5.854;2022-12-31T00:18:44;1.75;;;1.15;;
75035;SDS011;64247;51.540;5.854;2022-12-31T00:20:46;1.65;;;1.02;;
75035;SDS011;64247;51.540;5.854;2022-12-31T00:22:47;1.20;;;1.10;;
75035;SDS011;64247;51.540;5.854;2022-12-31T00:24:48;1.30;;;1.23;;
75035;SDS011;64247;51.540;5.854;2022-12-31T00:26:49;1.02;;;1.00;;
75035;SDS011;64247;51.540;5.854;2022-12-31T00:28:50;1.20;;;1.10;;
75035;SDS011;64247;51.540;5.854;2022-12-31T00:30:53;1.05;;;1.02;;
75035;SDS011;64247;51.540;5.854;2022-12-31T00:32:54;1.40;;;1.30;;
75035;SDS011;64247;51.540;5.854;2022-12-31T00:34:55;1.35;;;1.15;;
75035;SDS011;64247;51.540;5.854;2022-12-31T00:36:56;1.02;;;0.95;;
75035;SDS011;64247;51.540;5.854;2022-12-31T00:38:57;1.83;;;1.23;;
75035;SDS011;64247;51.540;5.854;2022-12-31T00:41:03;2.30;;;1.75;;
75035;SDS011;64247;51.540;5.854;2022-12-31T00:43:05;2.05;;;1.30;;
75035;SDS011;64247;51.540;5.854;2022-12-31T00:45:06;2.15;;;1.42;;
75035;SDS011;64247;51.540;5.854;2022-12-31T00:47:07;2.10;;;1.88;;
75035;SDS011;64247;51.540;5.854;2022-12-31T00:49:08;2.67;;;1.92;;
75035;SDS011;64247;51.540;5.854;2022-12-31T00:51:10;1.80;;;1.70;;
75035;SDS011;64247;51.540;5.854;2022-12-31T00:53:14;2.28;;;2.08;;
75035;SDS011;64247;51.540;5.854;2022-12-31T00:55:15;1.80;;;1.70;;
75035;SDS011;64247;51.540;5.854;2022-12-31T00:57:16;2.03;;;1.83;;
75035;SDS011;64247;51.540;5.854;2022-12-31T00:59:17;2.47;;;2.38;;
75035;SDS011;64247;51.540;5.854;2022-12-31T01:01:25;2.50;;;2.33;;
75035;SDS011;64247;51.540;5.854;2022-12-31T01:03:31;2.08;;;1.60;;
75035;SDS011;64247;51.540;5.854;2022-12-31T01:05:32;1.90;;;1.80;;
75035;SDS011;64247;51.540;5.854;2022-12-31T01:07:36;1.38;;;1.27;;
75035;SDS011;64247;51.540;5.854;2022-12-31T01:09:37;1.38;;;1.27;;
75035;SDS011;64247;51.540;5.854;2022-12-31T01:11:38;1.20;;;1.10;;
75035;SDS011;64247;51.540;5.854;2022-12-31T01:13:39;2.15;;;1.10;;
75035;SDS011;64247;51.540;5.854;2022-12-31T01:15:40;1.45;;;1.00;;
75035;SDS011;64247;51.540;5.854;2022-12-31T01:17:41;0.93;;;0.80;;
75035;SDS011;64247;51.540;5.854;2022-12-31T01:19:42;1.73;;;0.93;;
75035;SDS011;64247;51.540;5.854;2022-12-31T01:21:43;0.70;;;0.65;;
75035;SDS011;64247;51.540;5.854;2022-12-31T01:23:46;0.50;;;0.50;;
75035;SDS011;64247;51.540;5.854;2022-12-31T01:25:47;0.35;;;0.32;;
75035;SDS011;64247;51.540;5.854;2022-12-31T01:27:48;0.85;;;0.30;;
75035;SDS011;64247;51.540;5.854;2022-12-31T01:29:49;0.30;;;0.30;;
75035;SDS011;64247;51.540;5.854;2022-12-31T01:31:49;0.45;;;0.30;;
75035;SDS011;64247;51.540;5.854;2022-12-31T01:33:53;1.70;;;0.20;;
75035;SDS011;64247;51.540;5.854;2022-12-31T01:35:54;0.40;;;0.20;;
75035;SDS011;64247;51.540;5.854;2022-12-31T01:38:00;0.13;;;0.13;;
75035;SDS011;64247;51.540;5.854;2022-12-31T01:40:01;1.35;;;0.28;;
75035;SDS011;64247;51.540;5.854;2022-12-31T01:42:02;0.47;;;0.22;;
75035;SDS011;64247;51.540;5.854;2022-12-31T01:46:50;0.10;;;0.10;;
75035;SDS011;64247;51.540;5.854;2022-12-31T01:48:57;1.55;;;0.13;;
75035;SDS011;64247;51.540;5.854;2022-12-31T01:51:28;0.03;;;0.03;;
75035;SDS011;64247;51.540;5.854;2022-12-31T01:53:33;0.10;;;0.10;;
75035;SDS011;64247;51.540;5.854;2022-12-31T01:55:45;0.45;;;0.20;;
75035;SDS011;64247;51.540;5.854;2022-12-31T02:00:36;0.10;;;0.10;;
75035;SDS011;64247;51.540;5.854;2022-12-31T02:02:37;0.88;;;0.10;;
75035;SDS011;64247;51.540;5.854;2022-12-31T02:04:38;0.52;;;0.10;;
75035;SDS011;64247;51.540;5.854;2022-12-31T02:06:44;0.20;;;0.10;;
75035;SDS011;64247;51.540;5.854;2022-12-31T02:10:55;0.20;;;0.20;;
75035;SDS011;64247;51.540;5.854;2022-12-31T02:12:56;0.85;;;0.15;;
75035;SDS011;64247;51.540;5.854;2022-12-31T02:14:58;1.05;;;0.10;;
75035;SDS011;64247;51.540;5.854;2022-12-31T02:26:24;0.10;;;0.00;;
75035;SDS011;64247;51.540;5.854;2022-12-31T02:36:12;1.98;;;0.10;;
75035;SDS011;64247;51.540;5.854;2022-12-31T02:39:23;0.50;;;0.17;;
75035;SDS011;64247;51.540;5.854;2022-12-31T02:42:26;0.00;;;0.00;;
75035;SDS011;64247;51.540;5.854;2022-12-31T02:48:55;0.10;;;0.10;;
75035;SDS011;64247;51.540;5.854;2022-12-31T02:51:25;0.10;;;0.10;;
75035;SDS011;64247;51.540;5.854;2022-12-31T02:59:52;0.25;;;0.17;;
75035;SDS011;64247;51.540;5.854;2022-12-31T03:02:20;0.30;;;0.20;;
75035;SDS011;64247;51.540;5.854;2022-12-31T03:04:27;2.00;;;0.28;;
75035;SDS011;64247;51.540;5.854;2022-12-31T03:06:33;0.50;;;0.40;;
75035;SDS011;64247;51.540;5.854;2022-12-31T03:08:34;0.93;;;0.22;;
75035;SDS011;64247;51.540;5.854;2022-12-31T03:10:55;0.40;;;0.40;;
75035;SDS011;64247;51.540;5.854;2022-12-31T03:12:57;0.28;;;0.28;;
75035;SDS011;64247;51.540;5.854;2022-12-31T03:14:58;0.20;;;0.20;;
75035;SDS011;64247;51.540;5.854;2022-12-31T03:16:59;0.43;;;0.30;;
75035;SDS011;64247;51.540;5.854;2022-12-31T03:19:00;0.70;;;0.70;;
75035;SDS011;64247;51.540;5.854;2022-12-31T03:21:19;0.95;;;0.73;;
75035;SDS011;64247;51.540;5.854;2022-12-31T03:23:46;2.92;;;0.57;;
75035;SDS011;64247;51.540;5.854;2022-12-31T03:26:07;1.38;;;0.70;;
75035;SDS011;64247;51.540;5.854;2022-12-31T03:28:12;0.60;;;0.60;;
75035;SDS011;64247;51.540;5.854;2022-12-31T03:30:18;0.90;;;0.70;;
75035;SDS011;64247;51.540;5.854;2022-12-31T03:32:21;0.52;;;0.50;;
75035;SDS011;64247;51.540;5.854;2022-12-31T03:34:22;0.85;;;0.77;;
75035;SDS011;64247;51.540;5.854;2022-12-31T03:36:23;2.10;;;0.88;;
75035;SDS011;64247;51.540;5.854;2022-12-31T03:38:24;0.43;;;0.43;;
75035;SDS011;64247;51.540;5.854;2022-12-31T03:40:25;0.70;;;0.60;;
75035;SDS011;64247;51.540;5.854;2022-12-31T03:42:28;0.95;;;0.60;;
75035;SDS011;64247;51.540;5.854;2022-12-31T03:44:29;0.82;;;0.82;;
75035;SDS011;64247;51.540;5.854;2022-12-31T03:46:29;0.90;;;0.90;;
75035;SDS011;64247;51.540;5.854;2022-12-31T03:48:33;1.85;;;0.85;;
75035;SDS011;64247;51.540;5.854;2022-12-31T03:50:34;2.78;;;0.90;;
75035;SDS011;64247;51.540;5.854;2022-12-31T03:52:36;0.80;;;0.80;;
75035;SDS011;64247;51.540;5.854;2022-12-31T03:54:37;1.42;;;0.95;;
75035;SDS011;64247;51.540;5.854;2022-12-31T03:56:38;0.80;;;0.80;;
75035;SDS011;64247;51.540;5.854;2022-12-31T03:58:39;0.70;;;0.70;;
75035;SDS011;64247;51.540;5.854;2022-12-31T04:00:40;0.60;;;0.60;;
75035;SDS011;64247;51.540;5.854;2022-12-31T04:02:41;0.60;;;0.60;;
75035;SDS011;64247;51.540;5.854;2022-12-31T04:04:42;0.60;;;0.60;;
75035;SDS011;64247;51.540;5.854;2022-12-31T04:06:43;1.20;;;1.10;;
75035;SDS011;64247;51.540;5.854;2022-12-31T04:08:44;1.33;;;1.00;;
75035;SDS011;64247;51.540;5.854;2022-12-31T04:10:46;1.27;;;1.10;;
75035;SDS011;64247;51.540;5.854;2022-12-31T04:12:47;0.93;;;0.90;;
75035;SDS011;64247;51.540;5.854;2022-12-31T04:14:49;2.53;;;1.95;;
75035;SDS011;64247;51.540;5.854;2022-12-31T04:16:50;0.80;;;0.70;;
75035;SDS011;64247;51.540;5.854;2022-12-31T04:18:51;1.00;;;1.00;;
75035;SDS011;64247;51.540;5.854;2022-12-31T04:20:52;1.30;;;1.20;;
75035;SDS011;64247;51.540;5.854;2022-12-31T04:22:53;1.73;;;0.80;;
75035;SDS011;64247;51.540;5.854;2022-12-31T04:24:53;0.70;;;0.70;;
75035;SDS011;64247;51.540;5.854;2022-12-31T04:26:54;2.60;;;1.45;;
75035;SDS011;64247;51.540;5.854;2022-12-31T04:28:56;0.68;;;0.57;;
75035;SDS011;64247;51.540;5.854;2022-12-31T04:30:57;1.92;;;1.35;;
75035;SDS011;64247;51.540;5.854;2022-12-31T04:32:57;1.42;;;1.33;;
75035;SDS011;64247;51.540;5.854;2022-12-31T04:34:58;1.58;;;1.00;;
75035;SDS011;64247;51.540;5.854;2022-12-31T04:36:59;2.95;;;0.80;;
75035;SDS011;64247;51.540;5.854;2022-12-31T04:39:00;1.33;;;1.00;;
75035;SDS011;64247;51.540;5.854;2022-12-31T04:41:01;2.50;;;0.65;;
75035;SDS011;64247;51.540;5.854;2022-12-31T04:43:21;1.90;;;0.88;;
75035;SDS011;64247;51.540;5.854;2022-12-31T04:45:22;0.75;;;0.60;;
75035;SDS011;64247;51.540;5.854;2022-12-31T04:47:23;0.88;;;0.82;;
75035;SDS011;64247;51.540;5.854;2022-12-31T04:49:24;3.03;;;0.57;;
75035;SDS011;64247;51.540;5.854;2022-12-31T04:51:25;1.30;;;0.85;;
75035;SDS011;64247;51.540;5.854;2022-12-31T04:53:28;0.85;;;0.60;;
75035;SDS011;64247;51.540;5.854;2022-12-31T04:55:29;1.90;;;0.70;;
75035;SDS011;64247;51.540;5.854;2022-12-31T04:57:32;0.30;;;0.30;;
75035;SDS011;64247;51.540;5.854;2022-12-31T04:59:33;1.15;;;0.70;;
75035;SDS011;64247;51.540;5.854;2022-12-31T05:01:33;1.88;;;0.80;;
75035;SDS011;64247;51.540;5.854;2022-12-31T05:03:35;1.80;;;0.63;;
75035;SDS011;64247;51.540;5.854;2022-12-31T05:05:37;2.47;;;0.85;;
75035;SDS011;64247;51.540;5.854;2022-12-31T05:07:38;0.57;;;0.50;;
75035;SDS011;64247;51.540;5.854;2022-12-31T05:09:39;1.42;;;0.68;;
75035;SDS011;64247;51.540;5.854;2022-12-31T05:11:40;0.75;;;0.55;;
75035;SDS011;64247;51.540;5.854;2022-12-31T05:13:41;1.35;;;0.63;;
75035;SDS011;64247;51.540;5.854;2022-12-31T05:15:44;1.10;;;0.65;;
75035;SDS011;64247;51.540;5.854;2022-12-31T05:17:46;2.50;;;1.00;;
75035;SDS011;64247;51.540;5.854;2022-12-31T05:19:47;1.10;;;0.50;;
75035;SDS011;64247;51.540;5.854;2022-12-31T05:21:48;0.75;;;0.43;;
75035;SDS011;64247;51.540;5.854;2022-12-31T05:24:09;4.00;;;0.55;;
75035;SDS011;64247;51.540;5.854;2022-12-31T05:26:10;1.48;;;0.60;;
75035;SDS011;64247;51.540;5.854;2022-12-31T05:28:11;0.82;;;0.57;;
75035;SDS011;64247;51.540;5.854;2022-12-31T05:30:13;1.38;;;0.43;;
75035;SDS011;64247;51.540;5.854;2022-12-31T05:32:14;1.02;;;0.40;;
75035;SDS011;64247;51.540;5.854;2022-12-31T05:34:15;5.07;;;0.70;;
75035;SDS011;64247;51.540;5.854;2022-12-31T05:36:16;4.03;;;0.80;;
75035;SDS011;64247;51.540;5.854;2022-12-31T05:38:17;1.67;;;0.47;;
75035;SDS011;64247;51.540;5.854;2022-12-31T05:40:18;0.93;;;0.45;;
75035;SDS011;64247;51.540;5.854;2022-12-31T05:42:19;5.78;;;0.80;;
75035;SDS011;64247;51.540;5.854;2022-12-31T05:44:22;2.42;;;0.98;;
75035;SDS011;64247;51.540;5.854;2022-12-31T05:46:23;2.35;;;0.60;;
75035;SDS011;64247;51.540;5.854;2022-12-31T05:48:24;1.85;;;0.47;;
75035;SDS011;64247;51.540;5.854;2022-12-31T05:50:25;1.08;;;0.40;;
75035;SDS011;64247;51.540;5.854;2022-12-31T05:52:29;4.45;;;0.82;;
75035;SDS011;64247;51.540;5.854;2022-12-31T05:54:30;1.27;;;0.45;;
75035;SDS011;64247;51.540;5.854;2022-12-31T05:56:31;1.77;;;0.80;;
75035;SDS011;64247;51.540;5.854;2022-12-31T05:58:32;2.58;;;0.80;;
75035;SDS011;64247;51.540;5.854;2022-12-31T06:00:33;2.33;;;0.73;;
75035;SDS011;64247;51.540;5.854;2022-12-31T06:02:33;1.73;;;0.52;;
75035;SDS011;64247;51.540;5.854;2022-12-31T06:04:34;2.05;;;0.63;;
75035;SDS011;64247;51.540;5.854;2022-12-31T06:06:35;1.17;;;0.68;;
75035;SDS011;64247;51.540;5.854;2022-12-31T06:08:36;1.45;;;0.50;;
75035;SDS011;64247;51.540;5.854;2022-12-31T06:10:38;0.80;;;0.50;;
75035;SDS011;64247;51.540;5.854;2022-12-31T06:12:39;1.02;;;0.73;;
75035;SDS011;64247;51.540;5.854;2022-12-31T06:14:40;0.68;;;0.55;;
75035;SDS011;64247;51.540;5.854;2022-12-31T06:16:41;0.70;;;0.35;;
75035;SDS011;64247;51.540;5.854;2022-12-31T06:18:42;1.40;;;0.63;;
75035;SDS011;64247;51.540;5.854;2022-12-31T06:20:43;2.30;;;0.60;;
75035;SDS011;64247;51.540;5.854;2022-12-31T06:22:44;0.63;;;0.32;;
75035;SDS011;64247;51.540;5.854;2022-12-31T06:24:45;1.17;;;0.40;;
75035;SDS011;64247;51.540;5.854;2022-12-31T06:26:46;3.13;;;0.60;;
75035;SDS011;64247;51.540;5.854;2022-12-31T06:28:47;1.85;;;0.60;;
75035;SDS011;64247;51.540;5.854;2022-12-31T06:30:48;3.03;;;0.35;;
75035;SDS011;64247;51.540;5.854;2022-12-31T06:32:48;1.48;;;0.70;;
75035;SDS011;64247;51.540;5.854;2022-12-31T06:34:51;2.45;;;0.85;;
75035;SDS011;64247;51.540;5.854;2022-12-31T06:36:52;2.55;;;0.60;;
75035;SDS011;64247;51.540;5.854;2022-12-31T06:38:53;1.17;;;0.43;;
75035;SDS011;64247;51.540;5.854;2022-12-31T06:40:54;1.50;;;0.32;;
75035;SDS011;64247;51.540;5.854;2022-12-31T06:42:55;3.30;;;0.70;;
75035;SDS011;64247;51.540;5.854;2022-12-31T06:44:57;0.47;;;0.40;;
75035;SDS011;64247;51.540;5.854;2022-12-31T06:46:58;0.63;;;0.50;;
75035;SDS011;64247;51.540;5.854;2022-12-31T06:48:59;4.32;;;0.50;;
75035;SDS011;64247;51.540;5.854;2022-12-31T06:51:04;0.50;;;0.43;;
75035;SDS011;64247;51.540;5.854;2022-12-31T06:53:07;1.00;;;0.40;;
75035;SDS011;64247;51.540;5.854;2022-12-31T06:55:08;0.95;;;0.50;;
75035;SDS011;64247;51.540;5.854;2022-12-31T06:57:10;1.48;;;0.40;;
75035;SDS011;64247;51.540;5.854;2022-12-31T06:59:14;1.30;;;0.60;;
75035;SDS011;64247;51.540;5.854;2022-12-31T07:07:18;1.38;;;0.63;;
75035;SDS011;64247;51.540;5.854;2022-12-31T07:19:06;3.83;;;0.40;;
75035;SDS011;64247;51.540;5.854;2022-12-31T07:21:43;3.10;;;0.50;;
75035;SDS011;64247;51.540;5.854;2022-12-31T07:23:44;1.33;;;0.60;;
75035;SDS011;64247;51.540;5.854;2022-12-31T07:25:49;2.03;;;0.70;;
75035;SDS011;64247;51.540;5.854;2022-12-31T07:28:23;1.50;;;0.45;;
75035;SDS011;64247;51.540;5.854;2022-12-31T07:30:45;1.77;;;0.35;;
75035;SDS011;64247;51.540;5.854;2022-12-31T07:36:07;1.00;;;0.40;;
75035;SDS011;64247;51.540;5.854;2022-12-31T07:38:34;0.77;;;0.40;;
75035;SDS011;64247;51.540;5.854;2022-12-31T07:41:40;0.73;;;0.30;;
75035;SDS011;64247;51.540;5.854;2022-12-31T07:47:28;3.88;;;0.60;;
75035;SDS011;64247;51.540;5.854;2022-12-31T07:49:31;2.17;;;0.82;;
75035;SDS011;64247;51.540;5.854;2022-12-31T07:51:35;2.35;;;1.15;;
75035;SDS011;64247;51.540;5.854;2022-12-31T07:53:37;1.08;;;0.60;;
75035;SDS011;64247;51.540;5.854;2022-12-31T07:55:38;1.17;;;0.32;;
75035;SDS011;64247;51.540;5.854;2022-12-31T08:00:11;1.80;;;0.77;;
75035;SDS011;64247;51.540;5.854;2022-12-31T08:02:21;2.65;;;0.63;;
75035;SDS011;64247;51.540;5.854;2022-12-31T08:05:09;2.45;;;1.00;;
75035;SDS011;64247;51.540;5.854;2022-12-31T08:07:28;0.75;;;0.60;;
75035;SDS011;64247;51.540;5.854;2022-12-31T08:10:56;1.27;;;0.63;;
75035;SDS011;64247;51.540;5.854;2022-12-31T08:13:51;1.70;;;0.70;;
75035;SDS011;64247;51.540;5.854;2022-12-31T08:15:56;1.67;;;0.75;;
75035;SDS011;64247;51.540;5.854;2022-12-31T08:17:57;1.38;;;0.95;;
75035;SDS011;64247;51.540;5.854;2022-12-31T08:19:58;1.52;;;0.77;;
75035;SDS011;64247;51.540;5.854;2022-12-31T08:25:12;2.20;;;0.60;;
75035;SDS011;64247;51.540;5.854;2022-12-31T08:31:20;2.47;;;0.63;;
75035;SDS011;64247;51.540;5.854;2022-12-31T08:40:47;0.75;;;0.30;;
75035;SDS011;64247;51.540;5.854;2022-12-31T08:43:21;2.63;;;0.45;;
75035;SDS011;64247;51.540;5.854;2022-12-31T08:49:34;0.98;;;0.40;;
75035;SDS011;64247;51.540;5.854;2022-12-31T08:51:35;1.15;;;0.47;;
75035;SDS011;64247;51.540;5.854;2022-12-31T08:53:36;1.10;;;0.28;;
75035;SDS011;64247;51.540;5.854;2022-12-31T08:55:40;0.30;;;0.30;;
75035;SDS011;64247;51.540;5.854;2022-12-31T09:00:47;1.77;;;0.32;;
75035;SDS011;64247;51.540;5.854;2022-12-31T09:06:40;1.80;;;0.30;;
75035;SDS011;64247;51.540;5.854;2022-12-31T09:11:51;1.05;;;0.40;;
75035;SDS011;64247;51.540;5.854;2022-12-31T09:17:16;0.77;;;0.60;;
75035;SDS011;64247;51.540;5.854;2022-12-31T09:19:54;0.95;;;0.40;;
75035;SDS011;64247;51.540;5.854;2022-12-31T09:21:56;0.93;;;0.32;;
75035;SDS011;64247;51.540;5.854;2022-12-31T09:23:57;1.38;;;0.40;;
75035;SDS011;64247;51.540;5.854;2022-12-31T09:28:59;1.55;;;0.85;;
75035;SDS011;64247;51.540;5.854;2022-12-31T09:32:39;2.35;;;0.52;;
75035;SDS011;64247;51.540;5.854;2022-12-31T09:34:45;1.73;;;0.50;;
75035;SDS011;64247;51.540;5.854;2022-12-31T09:36:56;0.60;;;0.55;;
75035;SDS011;64247;51.540;5.854;2022-12-31T10:09:50;1.80;;;0.80;;
75035;SDS011;64247;51.540;5.854;2022-12-31T10:22:05;1.38;;;0.65;;
75035;SDS011;64247;51.540;5.854;2022-12-31T10:27:41;1.65;;;0.80;;
75035;SDS011;64247;51.540;5.854;2022-12-31T10:30:16;2.17;;;0.80;;
75035;SDS011;64247;51.540;5.854;2022-12-31T10:48:55;1.77;;;0.47;;
75035;SDS011;64247;51.540;5.854;2022-12-31T10:51:53;2.00;;;0.80;;
75035;SDS011;64247;51.540;5.854;2022-12-31T11:00:53;2.45;;;1.27;;
75035;SDS011;64247;51.540;5.854;2022-12-31T11:13:07;3.28;;;0.88;;
75035;SDS011;64247;51.540;5.854;2022-12-31T11:16:13;2.28;;;0.73;;
75035;SDS011;64247;51.540;5.854;2022-12-31T11:18:51;4.47;;;1.45;;
75035;SDS011;64247;51.540;5.854;2022-12-31T11:37:47;1.20;;;0.50;;
75035;SDS011;64247;51.540;5.854;2022-12-31T11:43:20;2.65;;;1.20;;
75035;SDS011;64247;51.540;5.854;2022-12-31T11:46:01;2.35;;;0.80;;
75035;SDS011;64247;51.540;5.854;2022-12-31T11:58:24;1.67;;;0.90;;
75035;SDS011;64247;51.540;5.854;2022-12-31T12:00:27;1.52;;;0.77;;
75035;SDS011;64247;51.540;5.854;2022-12-31T12:02:33;2.78;;;1.20;;
75035;SDS011;64247;51.540;5.854;2022-12-31T12:04:41;3.63;;;1.10;;
75035;SDS011;64247;51.540;5.854;2022-12-31T12:06:47;2.30;;;0.95;;
75035;SDS011;64247;51.540;5.854;2022-12-31T12:08:48;2.45;;;0.82;;
75035;SDS011;64247;51.540;5.854;2022-12-31T12:10:51;2.65;;;0.63;;
75035;SDS011;64247;51.540;5.854;2022-12-31T12:15:30;2.22;;;0.65;;
75035;SDS011;64247;51.540;5.854;2022-12-31T12:17:36;4.13;;;0.98;;
75035;SDS011;64247;51.540;5.854;2022-12-31T12:19:42;2.58;;;0.90;;
75035;SDS011;64247;51.540;5.854;2022-12-31T12:21:52;6.47;;;1.65;;
75035;SDS011;64247;51.540;5.854;2022-12-31T12:26:34;2.50;;;0.80;;
75035;SDS011;64247;51.540;5.854;2022-12-31T12:28:42;1.30;;;0.55;;
75035;SDS011;64247;51.540;5.854;2022-12-31T12:30:51;1.27;;;0.68;;
75035;SDS011;64247;51.540;5.854;2022-12-31T12:33:04;2.08;;;0.75;;
75035;SDS011;64247;51.540;5.854;2022-12-31T12:35:12;6.20;;;1.27;;
75035;SDS011;64247;51.540;5.854;2022-12-31T12:37:31;2.72;;;0.45;;
75035;SDS011;64247;51.540;5.854;2022-12-31T12:39:34;4.45;;;0.85;;
75035;SDS011;64247;51.540;5.854;2022-12-31T12:41:35;0.82;;;0.40;;
75035;SDS011;64247;51.540;5.854;2022-12-31T12:43:37;3.65;;;1.00;;
75035;SDS011;64247;51.540;5.854;2022-12-31T12:45:42;4.40;;;1.38;;
75035;SDS011;64247;51.540;5.854;2022-12-31T12:47:47;3.40;;;1.00;;
75035;SDS011;64247;51.540;5.854;2022-12-31T12:49:55;4.13;;;1.48;;
75035;SDS011;64247;51.540;5.854;2022-12-31T13:23:32;1.75;;;0.82;;
75035;SDS011;64247;51.540;5.854;2022-12-31T13:28:49;1.75;;;0.93;;
75035;SDS011;64247;51.540;5.854;2022-12-31T13:30:57;4.70;;;1.52;;
75035;SDS011;64247;51.540;5.854;2022-12-31T13:33:08;2.13;;;1.25;;
75035;SDS011;64247;51.540;5.854;2022-12-31T13:35:32;4.13;;;0.90;;
75035;SDS011;64247;51.540;5.854;2022-12-31T13:37:49;2.30;;;0.90;;
75035;SDS011;64247;51.540;5.854;2022-12-31T13:44:43;1.85;;;0.70;;
75035;SDS011;64247;51.540;5.854;2022-12-31T13:46:40;4.15;;;1.10;;
75035;SDS011;64247;51.540;5.854;2022-12-31T13:48:55;2.90;;;1.38;;
75035;SDS011;64247;51.540;5.854;2022-12-31T13:51:05;3.80;;;1.10;;
75035;SDS011;64247;51.540;5.854;2022-12-31T13:53:52;5.07;;;1.10;;
75035;SDS011;64247;51.540;5.854;2022-12-31T13:55:55;4.45;;;1.48;;
75035;SDS011;64247;51.540;5.854;2022-12-31T14:00:42;4.28;;;0.70;;
75035;SDS011;64247;51.540;5.854;2022-12-31T14:06:02;4.82;;;1.48;;
75035;SDS011;64247;51.540;5.854;2022-12-31T14:08:38;6.03;;;2.15;;
75035;SDS011;64247;51.540;5.854;2022-12-31T14:10:51;6.38;;;1.70;;
75035;SDS011;64247;51.540;5.854;2022-12-31T14:13:36;3.75;;;1.63;;
75035;SDS011;64247;51.540;5.854;2022-12-31T14:28:28;4.50;;;1.98;;
75035;SDS011;64247;51.540;5.854;2022-12-31T14:30:41;2.85;;;1.05;;
75035;SDS011;64247;51.540;5.854;2022-12-31T14:39:02;5.68;;;1.73;;
75035;SDS011;64247;51.540;5.854;2022-12-31T14:42:03;5.90;;;1.27;;
75035;SDS011;64247;51.540;5.854;2022-12-31T14:47:53;6.32;;;1.92;;
75035;SDS011;64247;51.540;5.854;2022-12-31T14:50:14;6.55;;;1.33;;
75035;SDS011;64247;51.540;5.854;2022-12-31T14:52:33;4.25;;;1.30;;
75035;SDS011;64247;51.540;5.854;2022-12-31T14:57:36;5.07;;;1.63;;
75035;SDS011;64247;51.540;5.854;2022-12-31T14:59:49;6.38;;;2.33;;
75035;SDS011;64247;51.540;5.854;2022-12-31T15:01:56;4.05;;;1.77;;
75035;SDS011;64247;51.540;5.854;2022-12-31T15:03:57;5.53;;;1.52;;
75035;SDS011;64247;51.540;5.854;2022-12-31T15:22:03;3.78;;;1.35;;
75035;SDS011;64247;51.540;5.854;2022-12-31T15:24:35;3.30;;;1.58;;
75035;SDS011;64247;51.540;5.854;2022-12-31T15:26:50;3.55;;;1.45;;
75035;SDS011;64247;51.540;5.854;2022-12-31T15:28:59;5.40;;;1.50;;
75035;SDS011;64247;51.540;5.854;2022-12-31T15:31:14;6.40;;;1.83;;
75035;SDS011;64247;51.540;5.854;2022-12-31T15:33:37;6.93;;;2.55;;
75035;SDS011;64247;51.540;5.854;2022-12-31T15:35:48;5.57;;;2.17;;
75035;SDS011;64247;51.540;5.854;2022-12-31T15:38:17;5.13;;;1.80;;
75035;SDS011;64247;51.540;5.854;2022-12-31T15:40:45;3.22;;;1.40;;
75035;SDS011;64247;51.540;5.854;2022-12-31T15:42:51;3.92;;;2.03;;
75035;SDS011;64247;51.540;5.854;2022-12-31T15:45:01;5.43;;;1.35;;
75035;SDS011;64247;51.540;5.854;2022-12-31T15:47:14;2.30;;;1.40;;
75035;SDS011;64247;51.540;5.854;2022-12-31T15:49:40;2.80;;;1.40;;
75035;SDS011;64247;51.540;5.854;2022-12-31T15:56:44;6.05;;;1.50;;
75035;SDS011;64247;51.540;5.854;2022-12-31T15:58:48;3.70;;;1.42;;
75035;SDS011;64247;51.540;5.854;2022-12-31T16:01:02;3.60;;;1.40;;
75035;SDS011;64247;51.540;5.854;2022-12-31T16:03:26;3.00;;;1.48;;
75035;SDS011;64247;51.540;5.854;2022-12-31T16:05:32;4.43;;;1.80;;
75035;SDS011;64247;51.540;5.854;2022-12-31T16:07:34;2.53;;;0.98;;
75035;SDS011;64247;51.540;5.854;2022-12-31T16:09:38;2.58;;;1.30;;
75035;SDS011;64247;51.540;5.854;2022-12-31T16:11:42;6.22;;;2.42;;
75035;SDS011;64247;51.540;5.854;2022-12-31T16:13:44;3.63;;;1.67;;
75035;SDS011;64247;51.540;5.854;2022-12-31T16:16:00;4.85;;;2.08;;
75035;SDS011;64247;51.540;5.854;2022-12-31T16:18:10;4.00;;;2.33;;
75035;SDS011;64247;51.540;5.854;2022-12-31T16:20:22;7.82;;;3.83;;
75035;SDS011;64247;51.540;5.854;2022-12-31T16:24:57;6.53;;;3.88;;
75035;SDS011;64247;51.540;5.854;2022-12-31T16:27:21;5.90;;;3.45;;
75035;SDS011;64247;51.540;5.854;2022-12-31T16:29:23;4.05;;;2.45;;
75035;SDS011;64247;51.540;5.854;2022-12-31T16:31:24;5.90;;;2.35;;
75035;SDS011;64247;51.540;5.854;2022-12-31T16:33:29;3.58;;;2.05;;
75035;SDS011;64247;51.540;5.854;2022-12-31T16:35:32;3.38;;;1.80;;
75035;SDS011;64247;51.540;5.854;2022-12-31T16:37:36;4.90;;;2.75;;
75035;SDS011;64247;51.540;5.854;2022-12-31T16:39:38;7.25;;;2.38;;
75035;SDS011;64247;51.540;5.854;2022-12-31T16:42:19;3.65;;;2.15;;
75035;SDS011;64247;51.540;5.854;2022-12-31T16:44:25;5.18;;;2.33;;
75035;SDS011;64247;51.540;5.854;2022-12-31T16:46:29;4.95;;;1.98;;
75035;SDS011;64247;51.540;5.854;2022-12-31T16:48:32;4.18;;;2.20;;
75035;SDS011;64247;51.540;5.854;2022-12-31T16:50:33;2.78;;;2.05;;
75035;SDS011;64247;51.540;5.854;2022-12-31T16:52:36;3.20;;;2.03;;
75035;SDS011;64247;51.540;5.854;2022-12-31T16:54:43;4.22;;;1.60;;
75035;SDS011;64247;51.540;5.854;2022-12-31T16:56:47;4.60;;;2.00;;
75035;SDS011;64247;51.540;5.854;2022-12-31T16:58:48;5.70;;;1.83;;
75035;SDS011;64247;51.540;5.854;2022-12-31T17:03:38;4.65;;;1.52;;
75035;SDS011;64247;51.540;5.854;2022-12-31T17:05:54;5.38;;;1.80;;
75035;SDS011;64247;51.540;5.854;2022-12-31T17:08:26;2.53;;;1.45;;
75035;SDS011;64247;51.540;5.854;2022-12-31T17:10:42;3.08;;;1.42;;
75035;SDS011;64247;51.540;5.854;2022-12-31T17:12:47;3.65;;;2.00;;
75035;SDS011;64247;51.540;5.854;2022-12-31T17:14:59;5.28;;;1.40;;
75035;SDS011;64247;51.540;5.854;2022-12-31T17:17:06;4.15;;;1.60;;
75035;SDS011;64247;51.540;5.854;2022-12-31T17:21:50;5.07;;;1.85;;
75035;SDS011;64247;51.540;5.854;2022-12-31T17:23:55;4.97;;;2.15;;
75035;SDS011;64247;51.540;5.854;2022-12-31T17:26:07;2.65;;;2.03;;
75035;SDS011;64247;51.540;5.854;2022-12-31T17:28:22;4.68;;;2.15;;
75035;SDS011;64247;51.540;5.854;2022-12-31T17:32:50;3.83;;;2.13;;
75035;SDS011;64247;51.540;5.854;2022-12-31T17:34:52;5.50;;;1.90;;
75035;SDS011;64247;51.540;5.854;2022-12-31T17:36:57;3.78;;;1.98;;
75035;SDS011;64247;51.540;5.854;2022-12-31T17:39:16;3.55;;;2.53;;
75035;SDS011;64247;51.540;5.854;2022-12-31T17:41:45;2.63;;;2.20;;
75035;SDS011;64247;51.540;5.854;2022-12-31T17:43:50;4.82;;;2.38;;
75035;SDS011;64247;51.540;5.854;2022-12-31T17:45:55;4.63;;;2.17;;
75035;SDS011;64247;51.540;5.854;2022-12-31T17:47:55;5.28;;;2.08;;
75035;SDS011;64247;51.540;5.854;2022-12-31T17:50:03;5.65;;;2.47;;
75035;SDS011;64247;51.540;5.854;2022-12-31T17:52:26;2.35;;;1.60;;
75035;SDS011;64247;51.540;5.854;2022-12-31T17:54:27;2.92;;;1.55;;
75035;SDS011;64247;51.540;5.854;2022-12-31T17:56:27;2.42;;;2.05;;
75035;SDS011;64247;51.540;5.854;2022-12-31T17:58:36;3.47;;;1.88;;
75035;SDS011;64247;51.540;5.854;2022-12-31T18:00:48;5.13;;;2.47;;
75035;SDS011;64247;51.540;5.854;2022-12-31T18:02:48;5.70;;;2.17;;